Kim Morgan Mortensen bestod mørkeutsjekk PDF Skriv ut E-post
Skrevet av Morten Borgen   
torsdag 18. oktober 2018 21:35

Flyskolen gratulerer Kim Morgan Mortensen med vellykket mørkeflygingskurs og bestått skolesjekk i dag torsdag 18.oktober. Han blir derfor vårt nyeste medlem med rykende fersk nattrettighet i sertifikatet. Skolen ønsker han lykke til videre med flygingen.

Morten / Skolesjef

 
 
METAR
2018/11/21 15:20 ENCN 211520Z 04010KT 9999 VCSH FEW013 BKN020 02/01 Q1032
TAF
2018/11/21 15:36 TAF TAF ENCN 211400Z 2115/2122 05010KT 9999 -RA SCT008 BKN012 TEMPO 2115/2122 SCT012 BKN018
LN-KFK
Operativ VFR-natt
VFR dag
07:41 - 16:46
Brannvakt
Inaktiv
Banner
Banner
Banner
Banner
Banner